Time;durP1;ratioP1;P1;durP2;ratioP2;P2;SDS_P1;SDS_P2;PMS_P1;PMS_P2;Temp;Humidity;BMP_temperature;BMP_pressure;BME280_temperature;BME280_humidity;BME280_pressure;Samples;Min_cycle;Max_cycle;Signal;HPM_P1;HPM_P2
2022/07/15 00:02:08;;;;;;;6.25;2.53;;;12.40;99.90;;;;;;5040338;28;20375;-48
2022/07/15 00:04:34;;;;;;;5.82;2.20;;;12.30;99.90;;;;;;5040479;28;20475;-51
2022/07/15 00:07:00;;;;;;;6.28;2.50;;;12.30;99.90;;;;;;5039355;28;20087;-49
2022/07/15 00:12:10;;;;;;;5.95;2.50;;;12.30;99.90;;;;;;5037611;28;20051;-47
2022/07/15 00:14:38;;;;;;;6.30;2.45;;;12.30;99.90;;;;;;5037997;28;20494;-47
2022/07/15 00:17:04;;;;;;;6.07;2.40;;;12.20;99.90;;;;;;5040559;28;20507;-51
2022/07/15 00:19:30;;;;;;;9.10;2.58;;;12.10;99.90;;;;;;5039434;28;20365;-50
2022/07/15 00:21:56;;;;;;;4.80;2.30;;;12.10;99.90;;;;;;5045289;28;20057;-54
2022/07/15 00:24:22;;;;;;;7.07;2.53;;;12.10;99.90;;;;;;5040228;28;20044;-48
2022/07/15 00:26:48;;;;;;;6.05;2.30;;;12.00;99.90;;;;;;5041059;28;20053;-53
2022/07/15 00:29:13;;;;;;;6.72;2.65;;;12.00;99.90;;;;;;5039122;28;20037;-49
2022/07/15 00:31:39;;;;;;;7.22;2.20;;;12.00;99.90;;;;;;5040092;28;20044;-51
2022/07/15 00:34:04;;;;;;;6.22;2.00;;;11.90;99.90;;;;;;5038953;28;20197;-52
2022/07/15 00:36:30;;;;;;;6.68;2.60;;;11.90;99.90;;;;;;5040662;28;20040;-48
2022/07/15 00:38:57;;;;;;;4.75;2.38;;;11.90;99.90;;;;;;5039159;28;20045;-48
2022/07/15 00:41:22;;;;;;;7.73;2.40;;;11.90;99.90;;;;;;5040723;28;20443;-47
2022/07/15 00:43:48;;;;;;;4.47;2.20;;;11.80;99.90;;;;;;5044625;28;20111;-50
2022/07/15 00:46:21;;;;;;;7.10;2.25;;;11.80;99.90;;;;;;5037896;28;20543;-49
2022/07/15 00:48:47;;;;;;;8.90;2.80;;;11.70;99.90;;;;;;5035710;28;20128;-51
2022/07/15 00:51:12;;;;;;;5.20;2.35;;;11.70;99.90;;;;;;5038642;28;20129;-47
2022/07/15 00:53:38;;;;;;;8.18;2.65;;;11.70;99.90;;;;;;5036397;28;20529;-51
2022/07/15 00:56:08;;;;;;;8.10;2.45;;;11.70;99.90;;;;;;5042290;28;20083;-48
2022/07/15 00:58:39;;;;;;;6.82;2.50;;;11.70;99.90;;;;;;5038484;28;20052;-48
2022/07/15 01:01:07;;;;;;;7.95;2.28;;;11.60;99.90;;;;;;5040430;28;20095;-52
2022/07/15 01:03:33;;;;;;;6.75;2.70;;;11.60;99.90;;;;;;5040738;28;20053;-45
2022/07/15 01:05:59;;;;;;;5.22;2.35;;;11.60;99.90;;;;;;5038683;28;20052;-48
2022/07/15 01:08:25;;;;;;;5.88;2.53;;;11.70;99.90;;;;;;5037078;28;20037;-50
2022/07/15 01:10:51;;;;;;;6.05;2.50;;;11.80;99.90;;;;;;5034998;28;20094;-52
2022/07/15 01:13:20;;;;;;;7.10;2.83;;;11.80;99.90;;;;;;5036936;28;20068;-48
2022/07/15 01:15:46;;;;;;;10.27;3.05;;;11.90;99.90;;;;;;5037513;28;20125;-47
2022/07/15 01:18:12;;;;;;;9.10;3.00;;;12.00;99.90;;;;;;5040036;28;20614;-49
2022/07/15 01:20:42;;;;;;;8.10;3.20;;;12.10;99.90;;;;;;5039973;28;20137;-50
2022/07/15 01:23:08;;;;;;;9.68;3.10;;;12.20;99.90;;;;;;5040829;28;20044;-50
2022/07/15 01:25:33;;;;;;;6.88;2.55;;;12.20;99.90;;;;;;5038481;28;20399;-49
2022/07/15 01:27:59;;;;;;;6.10;2.67;;;12.30;99.90;;;;;;5038042;28;20043;-48
2022/07/15 01:30:25;;;;;;;7.72;2.67;;;12.40;99.90;;;;;;5040965;28;20217;-50
2022/07/15 01:32:51;;;;;;;7.93;2.85;;;12.40;99.90;;;;;;5043000;28;20040;-50
2022/07/15 01:35:17;;;;;;;6.72;2.53;;;12.50;99.90;;;;;;5041079;28;20049;-49
2022/07/15 01:37:44;;;;;;;7.68;2.55;;;12.50;99.90;;;;;;5041073;28;20037;-49
2022/07/15 01:40:10;;;;;;;9.88;2.80;;;12.50;99.90;;;;;;5039765;28;20524;-54
2022/07/15 01:42:36;;;;;;;7.80;3.08;;;12.60;99.90;;;;;;5039482;28;20045;-47
2022/07/15 01:45:06;;;;;;;6.10;2.75;;;12.60;99.90;;;;;;5037541;28;20041;-50
2022/07/15 01:47:32;;;;;;;7.53;2.67;;;12.60;99.90;;;;;;5038328;28;20041;-48
2022/07/15 01:49:59;;;;;;;8.32;2.80;;;12.70;99.90;;;;;;5081331;22;20031;-72
2022/07/15 01:52:24;;;;;;;7.07;2.55;;;12.70;99.90;;;;;;5066443;28;20090;-69
2022/07/15 01:54:51;;;;;;;7.40;2.58;;;12.80;99.90;;;;;;5068029;28;20041;-71
2022/07/15 01:57:17;;;;;;;9.48;2.92;;;12.80;99.90;;;;;;5066103;28;20051;-71
2022/07/15 01:59:43;;;;;;;8.60;2.53;;;12.80;99.90;;;;;;5066903;28;20048;-71
2022/07/15 02:02:08;;;;;;;10.75;2.40;;;12.90;99.90;;;;;;5064895;28;20125;-72
2022/07/15 02:04:34;;;;;;;8.43;2.20;;;12.90;99.90;;;;;;5064600;28;20044;-71
2022/07/15 02:07:00;;;;;;;8.43;2.38;;;12.90;99.90;;;;;;5061396;28;20117;-72
2022/07/15 02:09:25;;;;;;;7.85;2.38;;;12.90;99.90;;;;;;5067008;28;20141;-71
2022/07/15 02:11:51;;;;;;;7.93;2.58;;;12.90;99.90;;;;;;5062604;28;20072;-71
2022/07/15 02:14:17;;;;;;;7.10;2.70;;;13.00;99.90;;;;;;5066304;28;20110;-72
2022/07/15 02:16:42;;;;;;;7.45;3.25;;;13.00;99.90;;;;;;5065802;28;20367;-72
2022/07/15 02:19:08;;;;;;;7.40;2.42;;;13.10;99.90;;;;;;5065186;28;20064;-72
2022/07/15 02:21:35;;;;;;;6.85;2.50;;;13.10;99.90;;;;;;5067983;28;20489;-72
2022/07/15 02:24:00;;;;;;;8.45;2.40;;;13.20;99.90;;;;;;5065183;28;20040;-72
2022/07/15 02:26:26;;;;;;;7.00;2.47;;;13.20;99.90;;;;;;5063161;28;20522;-72
2022/07/15 02:28:52;;;;;;;7.63;2.50;;;13.20;99.90;;;;;;5067803;28;20115;-70
2022/07/15 02:31:18;;;;;;;7.18;2.30;;;13.20;99.90;;;;;;5062824;28;20032;-70
2022/07/15 02:33:44;;;;;;;6.35;2.20;;;13.30;99.90;;;;;;5065883;28;20114;-71
2022/07/15 02:36:10;;;;;;;8.35;1.92;;;13.30;99.90;;;;;;5063332;28;20076;-70
2022/07/15 02:38:36;;;;;;;6.28;2.60;;;13.30;99.90;;;;;;5065288;28;20406;-70
2022/07/15 02:41:02;;;;;;;7.18;2.38;;;13.30;99.90;;;;;;5060828;28;20037;-70
2022/07/15 02:43:28;;;;;;;7.63;2.58;;;13.20;99.90;;;;;;5062267;28;20106;-71
2022/07/15 02:45:55;;;;;;;5.70;2.10;;;13.20;99.90;;;;;;5062468;28;20052;-71
2022/07/15 02:48:21;;;;;;;8.65;2.05;;;13.20;99.90;;;;;;5061823;28;20063;-70
2022/07/15 02:50:47;;;;;;;6.05;2.20;;;13.20;99.90;;;;;;5062538;28;20066;-71
2022/07/15 02:53:13;;;;;;;5.63;2.33;;;13.10;99.90;;;;;;5055729;28;20353;-70
2022/07/15 02:55:39;;;;;;;7.70;2.20;;;13.00;99.90;;;;;;5065638;28;20041;-71
2022/07/15 02:58:05;;;;;;;7.95;2.28;;;13.00;99.90;;;;;;5059361;28;20140;-70
2022/07/15 03:00:30;;;;;;;5.68;2.20;;;13.00;99.90;;;;;;5063009;28;20063;-71
2022/07/15 03:02:56;;;;;;;8.10;2.50;;;12.90;99.90;;;;;;5061854;28;20033;-71
2022/07/15 03:05:21;;;;;;;7.57;2.75;;;12.80;99.90;;;;;;5060901;28;20036;-71
2022/07/15 03:07:47;;;;;;;5.97;2.50;;;12.80;99.90;;;;;;5061640;28;20044;-70
2022/07/15 03:10:13;;;;;;;6.60;2.53;;;12.70;99.90;;;;;;5059380;28;20037;-71
2022/07/15 03:12:39;;;;;;;8.75;2.65;;;12.70;99.90;;;;;;5063644;28;20075;-70
2022/07/15 03:15:06;;;;;;;7.00;2.45;;;12.70;99.90;;;;;;5059914;28;20032;-71
2022/07/15 03:17:31;;;;;;;8.57;2.20;;;12.60;99.90;;;;;;5057313;28;20356;-70
2022/07/15 03:19:57;;;;;;;6.03;2.70;;;12.60;99.90;;;;;;5057406;28;20115;-71
2022/07/15 03:22:24;;;;;;;11.25;3.80;;;12.50;99.90;;;;;;5060474;28;20041;-71
2022/07/15 03:24:49;;;;;;;7.13;2.72;;;12.50;99.90;;;;;;5052787;28;20094;-69
2022/07/15 03:27:16;;;;;;;6.75;2.47;;;12.40;99.90;;;;;;5059835;28;20144;-69
2022/07/15 03:29:42;;;;;;;8.63;3.00;;;12.30;99.90;;;;;;5060525;28;20076;-71
2022/07/15 03:32:07;;;;;;;6.20;2.83;;;12.30;99.90;;;;;;5054958;28;20037;-71
2022/07/15 03:34:33;;;;;;;5.88;2.67;;;12.30;99.90;;;;;;5056154;28;20046;-72
2022/07/15 03:36:59;;;;;;;9.73;2.88;;;12.20;99.90;;;;;;5062462;28;20076;-72
2022/07/15 03:39:25;;;;;;;9.13;2.95;;;12.20;99.90;;;;;;5056529;28;20041;-72
2022/07/15 03:41:51;;;;;;;7.97;3.25;;;12.10;99.90;;;;;;5056870;28;21671;-72
2022/07/15 03:44:17;;;;;;;9.45;3.30;;;12.20;99.90;;;;;;5059045;28;20040;-70
2022/07/15 03:46:45;;;;;;;7.60;2.63;;;12.10;99.90;;;;;;5055952;28;20046;-70
2022/07/15 03:49:14;;;;;;;9.00;3.17;;;12.10;99.90;;;;;;5060025;28;20094;-68
2022/07/15 03:51:40;;;;;;;10.27;3.10;;;12.20;99.90;;;;;;5061186;28;20498;-71
2022/07/15 03:54:07;;;;;;;8.25;3.17;;;12.10;99.90;;;;;;5055650;28;20043;-70
2022/07/15 03:56:33;;;;;;;9.88;3.00;;;12.10;99.90;;;;;;5061017;28;20059;-70
2022/07/15 03:58:58;;;;;;;8.07;3.15;;;12.10;99.90;;;;;;5061297;28;20041;-71
2022/07/15 04:01:24;;;;;;;6.18;2.80;;;12.10;99.90;;;;;;5059662;28;20502;-71
2022/07/15 04:03:51;;;;;;;6.72;3.08;;;12.10;99.90;;;;;;5059263;28;20056;-71
2022/07/15 04:06:18;;;;;;;9.27;3.05;;;12.20;99.90;;;;;;5058580;28;20140;-71
2022/07/15 04:08:44;;;;;;;9.20;3.75;;;12.20;99.90;;;;;;5057770;28;20051;-69
2022/07/15 04:11:10;;;;;;;12.88;3.47;;;12.20;99.90;;;;;;5057737;28;20044;-70
2022/07/15 04:13:37;;;;;;;11.10;3.20;;;12.30;99.90;;;;;;5059689;28;20036;-70
2022/07/15 04:16:03;;;;;;;10.48;3.42;;;12.30;99.90;;;;;;5068935;28;20051;-69
2022/07/15 04:18:28;;;;;;;8.20;3.25;;;12.40;99.90;;;;;;5069037;28;20403;-70
2022/07/15 04:20:54;;;;;;;11.25;3.15;;;12.30;99.90;;;;;;5066545;28;20044;-71
2022/07/15 04:23:19;;;;;;;9.55;3.47;;;12.30;99.90;;;;;;5067736;28;20052;-70
2022/07/15 04:25:45;;;;;;;10.93;3.40;;;12.30;99.90;;;;;;5067117;28;20101;-70
2022/07/15 04:28:11;;;;;;;9.25;3.28;;;12.40;99.90;;;;;;5066054;28;20033;-71
2022/07/15 04:30:36;;;;;;;8.75;3.00;;;12.40;99.90;;;;;;5068343;28;20051;-69
2022/07/15 04:33:02;;;;;;;8.10;3.15;;;12.40;99.90;;;;;;5066980;28;20159;-70
2022/07/15 04:35:28;;;;;;;8.43;2.97;;;12.50;99.90;;;;;;5067338;28;20047;-69
2022/07/15 04:37:53;;;;;;;9.98;3.55;;;12.60;99.90;;;;;;5063801;28;20033;-69
2022/07/15 04:40:19;;;;;;;8.82;2.63;;;12.70;99.90;;;;;;5067994;28;20539;-69
2022/07/15 04:42:45;;;;;;;11.00;3.47;;;13.20;99.90;;;;;;5066255;28;20356;-69
2022/07/15 04:45:11;;;;;;;8.43;2.85;;;15.50;99.90;;;;;;5065107;28;20123;-70
2022/07/15 04:47:36;;;;;;;7.30;2.70;;;16.30;99.90;;;;;;5065945;28;20048;-70
2022/07/15 04:52:48;;;;;;;9.27;2.90;;;17.60;99.90;;;;;;5066617;28;20356;-70
2022/07/15 04:55:14;;;;;;;5.75;2.55;;;18.70;99.90;;;;;;5063431;28;20449;-70
2022/07/15 04:57:41;;;;;;;7.82;2.65;;;19.40;99.90;;;;;;5059354;28;20075;-71
2022/07/15 05:00:08;;;;;;;7.82;2.85;;;20.10;99.90;;;;;;5058472;28;20403;-70
2022/07/15 05:02:34;;;;;;;5.70;2.40;;;20.60;99.90;;;;;;5059761;28;20041;-70
2022/07/15 05:05:00;;;;;;;7.22;2.53;;;21.10;99.90;;;;;;5057550;28;20086;-70
2022/07/15 05:07:25;;;;;;;5.80;2.38;;;21.60;99.90;;;;;;5060187;28;20439;-70
2022/07/15 05:09:51;;;;;;;4.78;2.13;;;22.00;99.90;;;;;;5059383;28;20053;-70
2022/07/15 05:12:17;;;;;;;6.25;2.38;;;;;;;;;;5060093;28;20060;-70
2022/07/15 05:14:43;;;;;;;5.90;2.38;;;22.80;99.90;;;;;;5060215;28;20051;-70
2022/07/15 05:17:09;;;;;;;7.18;2.33;;;23.20;99.90;;;;;;5059550;28;20037;-71
2022/07/15 05:19:35;;;;;;;5.15;2.22;;;23.70;99.90;;;;;;5054910;28;20045;-70
2022/07/15 05:22:01;;;;;;;6.90;2.33;;;24.10;99.90;;;;;;5058286;28;20390;-71
2022/07/15 05:24:27;;;;;;;5.82;2.22;;;24.20;99.90;;;;;;5067387;28;20082;-70
2022/07/15 05:26:53;;;;;;;6.40;2.17;;;24.40;99.90;;;;;;5064908;28;20110;-69
2022/07/15 05:29:21;;;;;;;6.80;2.35;;;24.80;99.90;;;;;;5067780;28;20500;-69
2022/07/15 05:31:48;;;;;;;5.05;1.75;;;25.20;99.90;;;;;;5067853;28;20067;-71
2022/07/15 05:34:13;;;;;;;5.55;2.00;;;25.50;98.10;;;;;;5068918;28;20051;-66
2022/07/15 05:36:39;;;;;;;8.80;2.17;;;25.60;97.90;;;;;;5066338;28;20045;-70
2022/07/15 05:39:04;;;;;;;4.15;1.80;;;25.90;96.50;;;;;;5066660;28;20122;-68
2022/07/15 05:41:33;;;;;;;5.85;1.80;;;25.80;95.30;;;;;;5059604;28;20037;-69
2022/07/15 05:43:59;;;;;;;5.38;1.77;;;26.10;94.60;;;;;;5043691;28;20049;-66
2022/07/15 05:46:24;;;;;;;6.25;1.80;;;26.50;94.70;;;;;;5063536;28;20044;-70
2022/07/15 05:48:50;;;;;;;5.72;1.73;;;26.60;93.50;;;;;;5065406;28;20097;-69
2022/07/15 05:51:16;;;;;;;8.63;2.10;;;26.80;92.30;;;;;;5066317;28;20657;-73
2022/07/15 05:53:42;;;;;;;5.15;1.70;;;27.00;91.50;;;;;;5067161;28;20037;-67
2022/07/15 05:56:07;;;;;;;4.65;1.60;;;27.20;90.80;;;;;;5066875;28;20056;-67
2022/07/15 05:58:33;;;;;;;6.82;1.58;;;27.60;90.50;;;;;;5070663;28;20120;-66
2022/07/15 06:00:59;;;;;;;5.13;1.75;;;27.70;88.70;;;;;;5071405;28;20070;-67
2022/07/15 06:03:24;;;;;;;5.28;1.63;;;27.70;89.10;;;;;;5066773;28;20483;-67
2022/07/15 06:05:50;;;;;;;6.72;1.50;;;27.30;86.70;;;;;;5062779;28;20475;-68
2022/07/15 06:08:15;;;;;;;5.50;1.38;;;26.90;84.50;;;;;;5056654;28;20072;-68
2022/07/15 06:10:41;;;;;;;2.63;1.70;;;25.80;86.10;;;;;;5069742;28;20060;-64
2022/07/15 06:13:07;;;;;;;4.03;1.20;;;24.90;85.40;;;;;;5073431;28;20048;-65
2022/07/15 06:15:33;;;;;;;5.68;1.25;;;24.20;87.90;;;;;;5078451;28;20559;-66
2022/07/15 06:17:59;;;;;;;3.25;1.00;;;23.10;90.00;;;;;;5082590;28;20814;-66
2022/07/15 06:20:25;;;;;;;2.83;1.10;;;21.50;90.50;;;;;;5077251;28;20044;-66
2022/07/15 06:22:51;;;;;;;5.10;1.10;;;21.10;92.10;;;;;;5082144;28;20044;-69
2022/07/15 06:25:16;;;;;;;3.33;1.00;;;20.60;93.60;;;;;;5075447;28;20051;-69
2022/07/15 06:27:42;;;;;;;5.65;1.65;;;20.10;94.60;;;;;;5068497;28;20481;-67
2022/07/15 06:30:08;;;;;;;5.03;1.00;;;19.60;94.60;;;;;;5077944;28;20056;-67
2022/07/15 06:32:35;;;;;;;3.67;1.47;;;19.20;95.10;;;;;;5078033;28;20042;-68
2022/07/15 06:35:01;;;;;;;6.00;1.43;;;18.90;96.60;;;;;;5071828;28;20037;-67
2022/07/15 06:37:27;;;;;;;4.50;1.42;;;18.70;96.90;;;;;;5071861;28;20039;-69
2022/07/15 06:39:54;;;;;;;2.42;1.10;;;18.50;97.70;;;;;;5062618;28;20049;-69
2022/07/15 06:42:20;;;;;;;8.40;1.50;;;18.30;98.70;;;;;;5071562;28;20411;-69
2022/07/15 06:44:46;;;;;;;5.30;2.10;;;18.30;98.90;;;;;;5069596;28;20072;-68
2022/07/15 06:47:12;;;;;;;4.22;1.00;;;18.40;99.30;;;;;;5069687;28;20082;-68
2022/07/15 06:49:38;;;;;;;4.13;1.15;;;18.40;99.00;;;;;;5068891;28;20032;-68
2022/07/15 06:52:04;;;;;;;2.85;1.02;;;18.60;99.10;;;;;;5068085;28;20098;-68
2022/07/15 06:54:30;;;;;;;4.22;1.00;;;18.90;98.90;;;;;;5072640;28;20088;-69
2022/07/15 06:56:57;;;;;;;3.47;0.70;;;18.80;98.90;;;;;;5068179;28;20041;-70
2022/07/15 06:59:23;;;;;;;2.17;0.80;;;20.00;97.90;;;;;;5068143;28;20140;-69
2022/07/15 07:01:49;;;;;;;3.80;0.93;;;21.00;97.40;;;;;;5056883;28;20429;-68
2022/07/15 07:04:15;;;;;;;2.72;1.00;;;21.80;95.70;;;;;;5054773;28;20063;-67
2022/07/15 07:06:40;;;;;;;2.85;1.00;;;22.70;95.50;;;;;;5058963;28;20041;-68
2022/07/15 07:09:06;;;;;;;2.45;0.93;;;23.50;94.60;;;;;;5059294;28;20058;-68
2022/07/15 07:11:32;;;;;;;2.30;0.82;;;23.60;92.60;;;;;;5058257;28;21413;-68
2022/07/15 07:13:59;;;;;;;3.78;1.00;;;24.50;91.90;;;;;;5060095;28;20504;-68
2022/07/15 07:16:25;;;;;;;5.32;1.17;;;25.00;92.50;;;;;;5063836;28;20076;-69
2022/07/15 07:18:50;;;;;;;5.40;1.40;;;25.30;91.00;;;;;;5060529;28;20535;-69
2022/07/15 07:21:17;;;;;;;2.30;0.70;;;25.30;87.80;;;;;;5068412;28;20032;-68
2022/07/15 07:23:43;;;;;;;3.25;0.75;;;25.70;89.00;;;;;;5067626;28;20044;-68
2022/07/15 07:26:09;;;;;;;2.65;0.95;;;25.90;87.70;;;;;;5065604;28;20037;-68
2022/07/15 07:28:36;;;;;;;3.92;1.00;;;26.10;85.90;;;;;;5064104;28;20055;-69
2022/07/15 07:31:01;;;;;;;3.92;0.90;;;25.40;81.40;;;;;;5054472;28;20063;-67
2022/07/15 07:33:27;;;;;;;2.97;1.30;;;25.80;84.50;;;;;;5062921;28;20052;-66
2022/07/15 07:35:54;;;;;;;3.42;1.23;;;25.90;83.90;;;;;;5069490;28;20044;-67
2022/07/15 07:38:20;;;;;;;2.80;1.20;;;25.80;83.40;;;;;;5070052;28;20033;-69
2022/07/15 07:40:48;;;;;;;3.10;1.00;;;25.90;83.10;;;;;;5065682;28;20042;-68
2022/07/15 07:43:15;;;;;;;3.22;1.00;;;25.90;82.80;;;;;;5066730;28;20044;-68
2022/07/15 07:45:41;;;;;;;;;;;25.50;82.90;;;;;;5063317;28;20061;-72
2022/07/15 07:48:06;;;;;;;1.25;0.73;;;25.20;82.70;;;;;;5061228;28;19920;-66
2022/07/15 07:50:32;;;;;;;3.45;0.73;;;24.80;83.00;;;;;;5065828;28;20101;-66
2022/07/15 07:52:58;;;;;;;4.13;1.02;;;24.20;83.70;;;;;;5064995;28;20048;-66
2022/07/15 07:55:23;;;;;;;1.88;0.50;;;23.90;85.00;;;;;;5065667;28;20229;-66
2022/07/15 07:57:53;;;;;;;2.35;0.70;;;23.30;85.00;;;;;;5063032;28;20033;-66
2022/07/15 08:00:21;;;;;;;3.25;0.70;;;22.70;86.60;;;;;;5063210;28;20052;-66
2022/07/15 08:02:47;;;;;;;4.60;0.70;;;22.40;86.80;;;;;;5067174;28;20048;-67
2022/07/15 08:05:13;;;;;;;2.45;0.75;;;22.60;88.30;;;;;;5062682;28;20047;-67
2022/07/15 08:07:40;;;;;;;1.27;0.80;;;22.50;87.50;;;;;;5066650;28;20040;-66
2022/07/15 08:10:07;;;;;;;1.92;0.57;;;22.30;88.80;;;;;;5066763;28;20123;-65
2022/07/15 08:12:33;;;;;;;1.52;0.60;;;21.70;86.80;;;;;;5062597;28;20113;-69
2022/07/15 08:14:59;;;;;;;1.83;0.50;;;22.00;88.10;;;;;;5062387;28;20048;-66
2022/07/15 08:17:25;;;;;;;3.30;0.60;;;22.20;90.10;;;;;;5061164;28;20040;-66
2022/07/15 08:19:50;;;;;;;2.75;0.45;;;22.40;89.40;;;;;;5059968;28;20044;-68
2022/07/15 08:22:16;;;;;;;1.98;0.50;;;22.40;87.00;;;;;;5061091;28;20056;-66
2022/07/15 08:24:42;;;;;;;1.88;0.47;;;21.90;87.20;;;;;;5063012;28;20036;-66
2022/07/15 08:27:08;;;;;;;2.42;0.50;;;22.00;87.60;;;;;;5058371;28;20484;-67
2022/07/15 08:29:34;;;;;;;1.83;0.40;;;21.80;86.80;;;;;;5064246;28;20673;-65
2022/07/15 08:32:00;;;;;;;2.20;0.57;;;21.60;87.80;;;;;;5057701;28;20045;-67
2022/07/15 08:34:26;;;;;;;1.30;0.38;;;21.60;89.50;;;;;;5070532;28;20503;-66
2022/07/15 08:36:52;;;;;;;1.85;0.40;;;21.50;88.50;;;;;;5069240;28;20037;-68
2022/07/15 08:39:18;;;;;;;0.40;0.20;;;21.40;89.10;;;;;;5044512;28;20052;-68
2022/07/15 08:41:44;;;;;;;2.03;0.40;;;21.40;88.60;;;;;;5067307;28;20041;-67
2022/07/15 08:44:10;;;;;;;0.63;0.33;;;21.60;90.00;;;;;;5060177;28;20507;-67
2022/07/15 08:46:36;;;;;;;3.63;1.70;;;21.50;87.90;;;;;;5055663;28;20048;-66
2022/07/15 08:49:06;;;;;;;1.52;0.80;;;21.70;88.20;;;;;;5057798;28;20037;-67
2022/07/15 08:51:38;;;;;;;1.88;0.40;;;21.80;89.80;;;;;;5061163;28;20079;-66
2022/07/15 08:54:04;;;;;;;1.55;0.60;;;21.90;89.40;;;;;;5057321;28;20131;-66
2022/07/15 08:56:32;;;;;;;1.13;0.47;;;21.90;87.90;;;;;;5056979;28;20045;-66
2022/07/15 08:58:58;;;;;;;1.00;0.40;;;21.70;86.70;;;;;;5057692;28;20067;-69
2022/07/15 09:01:24;;;;;;;1.75;0.43;;;21.20;85.70;;;;;;5060199;28;20051;-67
2022/07/15 09:03:49;;;;;;;2.13;0.40;;;21.40;88.70;;;;;;5054452;28;20033;-67
2022/07/15 09:06:36;;;;;;;2.42;0.50;;;21.10;89.40;;;;;;5061077;28;20044;-67
2022/07/15 09:09:23;;;;;;;3.17;0.40;;;21.00;90.10;;;;;;5058413;28;20051;-66
2022/07/15 09:11:58;;;;;;;0.50;0.38;;;20.90;90.70;;;;;;5060490;28;20082;-68
2022/07/15 09:14:28;;;;;;;2.05;0.43;;;21.20;90.70;;;;;;5059260;28;20040;-67
2022/07/15 09:17:14;;;;;;;1.33;0.40;;;21.60;90.60;;;;;;5056322;28;20032;-67
2022/07/15 09:19:59;;;;;;;2.90;0.63;;;21.90;90.60;;;;;;5051817;28;20503;-66
2022/07/15 09:22:26;;;;;;;1.02;0.30;;;21.90;89.40;;;;;;5055596;28;20051;-66
2022/07/15 09:25:12;;;;;;;0.88;0.30;;;21.90;88.10;;;;;;5058830;28;20139;-69
2022/07/15 09:27:40;;;;;;;1.77;0.40;;;22.40;89.90;;;;;;5056827;28;20048;-67
2022/07/15 09:36:04;;;;;;;1.13;0.30;;;22.50;88.30;;;;;;5053335;28;20123;-68
2022/07/15 09:38:34;;;;;;;2.83;0.60;;;23.00;86.40;;;;;;5057890;28;20080;-66
2022/07/15 09:41:01;;;;;;;1.25;0.40;;;22.90;85.60;;;;;;5065587;28;20049;-66
2022/07/15 09:43:28;;;;;;;1.52;0.30;;;23.10;88.40;;;;;;5057945;28;20094;-66
2022/07/15 09:46:01;;;;;;;9.65;1.05;;;23.20;85.20;;;;;;5057800;28;20115;-66
2022/07/15 09:48:31;;;;;;;1.67;0.45;;;23.20;83.50;;;;;;5054712;28;20044;-66
2022/07/15 09:51:00;;;;;;;1.52;0.40;;;23.10;83.80;;;;;;5057257;28;20053;-66
2022/07/15 09:53:26;;;;;;;1.70;0.50;;;23.20;83.80;;;;;;5059395;28;20043;-66
2022/07/15 09:55:52;;;;;;;1.55;1.05;;;23.50;85.30;;;;;;5057451;28;20482;-66
2022/07/15 09:58:20;;;;;;;1.60;0.50;;;23.70;85.90;;;;;;5055243;28;20037;-66
2022/07/15 10:00:46;;;;;;;0.77;0.30;;;24.00;85.10;;;;;;5056547;28;20112;-66
2022/07/15 10:03:12;;;;;;;0.73;0.52;;;23.50;81.80;;;;;;5061888;28;20187;-67
2022/07/15 10:05:39;;;;;;;0.57;0.30;;;23.40;82.30;;;;;;5058260;28;20036;-67
2022/07/15 10:08:09;;;;;;;0.45;0.30;;;23.60;81.70;;;;;;5066645;28;20040;-66
2022/07/15 10:10:35;;;;;;;0.73;0.25;;;23.60;80.30;;;;;;5060017;28;20076;-67
2022/07/15 10:13:19;;;;;;;3.20;0.40;;;23.70;81.20;;;;;;5061810;28;20132;-68
2022/07/15 10:16:05;;;;;;;1.60;0.47;;;24.00;82.00;;;;;;5062576;28;20098;-66
2022/07/15 10:18:31;;;;;;;2.50;0.40;;;23.80;80.30;;;;;;5062456;28;20048;-66
2022/07/15 10:21:17;;;;;;;1.20;0.30;;;23.50;80.70;;;;;;5064961;28;20139;-66
2022/07/15 10:23:54;;;;;;;1.15;0.43;;;23.20;82.40;;;;;;5053095;28;20053;-67
2022/07/15 10:26:44;;;;;;;1.23;0.30;;;23.00;83.90;;;;;;5064285;28;20589;-67
2022/07/15 10:29:11;;;;;;;0.77;0.30;;;22.70;82.60;;;;;;5065276;28;20465;-68
2022/07/15 10:31:39;;;;;;;0.98;0.30;;;22.70;83.50;;;;;;5063342;28;20047;-67
2022/07/15 10:34:04;;;;;;;0.80;0.30;;;23.10;84.50;;;;;;5059786;28;20159;-67
2022/07/15 10:36:43;;;;;;;0.32;0.30;;;23.00;82.40;;;;;;5062351;28;20127;-68
2022/07/15 10:39:08;;;;;;;0.95;0.30;;;23.10;82.30;;;;;;5062203;28;20080;-67
2022/07/15 10:41:59;;;;;;;1.67;0.50;;;22.90;79.90;;;;;;5062793;28;20390;-69
2022/07/15 10:44:30;;;;;;;3.58;0.95;;;23.30;83.40;;;;;;5063043;28;20071;-66
2022/07/15 10:47:14;;;;;;;0.80;0.25;;;23.60;81.20;;;;;;5057681;28;20040;-66
2022/07/15 10:49:47;;;;;;;1.25;0.50;;;23.60;81.10;;;;;;5060938;28;20133;-69
2022/07/15 10:52:17;;;;;;;0.73;0.40;;;23.30;80.50;;;;;;5065797;28;20049;-68
2022/07/15 10:55:04;;;;;;;0.75;0.40;;;23.40;82.20;;;;;;5065106;28;20051;-68
2022/07/15 10:57:44;;;;;;;4.63;0.68;;;23.10;81.40;;;;;;5065889;28;20499;-67
2022/07/15 11:00:34;;;;;;;1.50;0.40;;;23.10;82.20;;;;;;5069949;28;20052;-66
2022/07/15 11:03:05;;;;;;;0.95;0.40;;;23.40;82.80;;;;;;5064619;28;20037;-66
2022/07/15 11:05:32;;;;;;;0.75;0.30;;;23.80;82.90;;;;;;5060024;28;21295;-67
2022/07/15 11:07:57;;;;;;;0.75;0.32;;;23.50;81.90;;;;;;5061050;28;20043;-67
2022/07/15 11:10:23;;;;;;;0.50;0.30;;;23.10;80.40;;;;;;5057297;28;20037;-66
2022/07/15 11:12:48;;;;;;;2.72;0.50;;;23.10;82.30;;;;;;5062069;28;20036;-66
2022/07/15 11:15:16;;;;;;;1.70;0.30;;;23.00;81.50;;;;;;5058128;28;20040;-70
2022/07/15 11:17:47;;;;;;;2.78;0.80;;;22.80;81.40;;;;;;5061780;28;20117;-67
2022/07/15 11:20:19;;;;;;;2.78;0.50;;;22.70;82.70;;;;;;5058051;28;20051;-67
2022/07/15 11:22:47;;;;;;;8.05;0.50;;;22.60;81.10;;;;;;5060801;28;20073;-67
2022/07/15 11:25:35;;;;;;;1.58;0.32;;;22.80;83.30;;;;;;5055468;28;20726;-68
2022/07/15 11:28:12;;;;;;;1.30;0.40;;;22.70;81.50;;;;;;5065071;28;20045;-69
2022/07/15 11:30:53;;;;;;;3.58;0.50;;;22.60;80.30;;;;;;5057196;28;20487;-67
2022/07/15 11:33:25;;;;;;;1.38;0.47;;;23.00;82.90;;;;;;5055773;28;20044;-68
2022/07/15 11:35:54;;;;;;;4.20;0.60;;;23.50;83.50;;;;;;5061447;28;20041;-68
2022/07/15 11:38:23;;;;;;;3.45;0.50;;;23.50;82.00;;;;;;5054835;28;20049;-67
2022/07/15 11:46:22;;;;;;;2.13;0.50;;;24.00;84.60;;;;;;5062080;28;20060;-68
2022/07/15 11:48:49;;;;;;;2.75;0.52;;;24.30;82.80;;;;;;5064508;28;20052;-68
2022/07/15 11:51:16;;;;;;;1.70;0.57;;;24.50;82.20;;;;;;5064495;28;20064;-69
2022/07/15 11:53:44;;;;;;;1.60;0.45;;;24.40;83.60;;;;;;5066286;28;20314;-68
2022/07/15 11:56:12;;;;;;;0.98;0.50;;;24.40;83.30;;;;;;5064455;28;20037;-66
2022/07/15 11:58:37;;;;;;;;;;;24.10;81.70;;;;;;5057495;28;20044;-69
2022/07/15 12:01:09;;;;;;;2.70;0.57;;;24.00;81.30;;;;;;5059549;28;19921;-67
2022/07/15 12:03:41;;;;;;;0.57;0.40;;;23.90;81.30;;;;;;5064828;28;20051;-67
2022/07/15 12:06:11;;;;;;;1.13;0.40;;;23.60;81.30;;;;;;5063003;28;20123;-68
2022/07/15 12:08:57;;;;;;;2.63;0.75;;;23.30;82.40;;;;;;5060818;28;20095;-68
2022/07/15 12:11:29;;;;;;;2.00;0.47;;;23.30;84.20;;;;;;5063393;28;20094;-67
2022/07/15 12:14:02;;;;;;;3.35;0.68;;;23.40;83.90;;;;;;5065858;28;20197;-66
2022/07/15 12:16:29;;;;;;;1.65;0.43;;;23.50;83.30;;;;;;5064890;28;20049;-67
2022/07/15 12:18:58;;;;;;;0.75;0.45;;;23.70;84.20;;;;;;5061677;28;20037;-67
2022/07/15 12:21:25;;;;;;;2.40;0.38;;;23.90;81.70;;;;;;5061070;28;20049;-68
2022/07/15 12:24:04;;;;;;;0.93;0.47;;;24.10;81.50;;;;;;5063752;28;20072;-69
2022/07/15 12:26:30;;;;;;;1.42;0.57;;;24.00;80.40;;;;;;5059144;28;20052;-67
2022/07/15 12:28:57;;;;;;;2.53;0.50;;;23.90;80.40;;;;;;5061380;28;20033;-68
2022/07/15 12:31:33;;;;;;;3.15;0.45;;;24.00;80.60;;;;;;5061256;28;20128;-67
2022/07/15 12:33:59;;;;;;;2.13;0.50;;;23.90;79.60;;;;;;5064468;28;20102;-68
2022/07/15 12:36:27;;;;;;;2.95;0.55;;;24.00;78.90;;;;;;5064865;28;20036;-67
2022/07/15 12:39:22;;;;;;;2.72;0.50;;;23.80;77.80;;;;;;5064564;28;20045;-67
2022/07/15 12:42:00;;;;;;;0.50;0.30;;;23.60;78.20;;;;;;5051841;28;20052;-67
2022/07/15 12:44:26;;;;;;;2.20;0.55;;;23.60;79.60;;;;;;5062847;28;20040;-69
2022/07/15 12:46:55;;;;;;;1.92;0.52;;;23.60;79.40;;;;;;5061637;28;20036;-67
2022/07/15 12:49:41;;;;;;;4.30;0.50;;;23.60;80.30;;;;;;5061596;28;20044;-66
2022/07/15 12:52:30;;;;;;;3.95;0.60;;;23.20;80.50;;;;;;5063977;28;20777;-68
2022/07/15 12:54:56;;;;;;;1.63;0.50;;;22.90;80.90;;;;;;5063575;28;20364;-67
2022/07/15 12:57:24;;;;;;;1.90;0.50;;;23.00;82.20;;;;;;5063256;28;20040;-67
2022/07/15 13:00:13;;;;;;;2.30;0.68;;;22.90;81.30;;;;;;5065013;28;21812;-68
2022/07/15 13:03:01;;;;;;;3.47;0.43;;;23.00;82.30;;;;;;5060221;28;20041;-67
2022/07/15 13:05:38;;;;;;;1.92;0.70;;;23.10;80.80;;;;;;5065710;28;20415;-68
2022/07/15 13:08:17;;;;;;;1.25;0.60;;;23.00;80.70;;;;;;5065453;28;20446;-67
2022/07/15 13:10:46;;;;;;;5.18;0.90;;;23.10;81.10;;;;;;5060503;28;20403;-67